KBVO/BVO METAR and TAF weather

Enter ICAO airport designator
Station Type Date Time Source
KBVO METAR 2019/07/20 04:53 UTC NOAA

KBVO 200453Z AUTO 18007KT 10SM CLR 28/22 A2989 RMK AO2 SLP107 T02830222


Station Type Date Time Source
KBVO Decoded METAR 2019/07/20 04:53 UTC NOAA

BARTLESVILLE MUNICIPAL AIRPORT , OK, United States (KBVO) 36-46N 96-01W 210M
Jul 20, 2019 - 12:53 AM EDT / 2019.07.20 0453 UTC
Wind: from the S (180 degrees) at 8 MPH (7 KT):0
Visibility: 10 mile(s):0
Sky conditions: clear
Temperature: 82.9 F (28.3 C)
Dew Point: 72.0 F (22.2 C)
Relative Humidity: 69%
Pressure (altimeter): 29.89 in. Hg (1012 hPa)
ob: KBVO 200453Z AUTO 18007KT 10SM CLR 28/22 A2989 RMK AO2 SLP107 T02830222
cycle: 5

Station Type Date Time Source
KBVO TAF 2019/07/19 18:24 UTC NOAA

TAF KBVO 191721Z 1918/2018 20010G18KT P6SM SKC
FM200200 18005KT P6SM SKC
FM201500 19012G20KT P6SM SKC

Example: see airport list